createdAt,value
2023-02-05T00:01:24.369Z,9.30
2023-02-05T00:03:51.319Z,9.85
2023-02-05T00:06:18.270Z,13.63
2023-02-05T00:08:45.127Z,10.90
2023-02-05T00:11:11.860Z,10.68
2023-02-05T00:13:40.824Z,11.30
2023-02-05T00:16:09.630Z,8.65
2023-02-05T00:18:37.552Z,11.60
2023-02-05T00:21:05.946Z,9.35
2023-02-05T00:23:33.001Z,13.13
2023-02-05T00:25:59.745Z,10.02
2023-02-05T00:28:26.707Z,9.63
2023-02-05T00:30:53.483Z,11.57
2023-02-05T00:33:21.884Z,15.77
2023-02-05T00:35:48.785Z,10.02
2023-02-05T00:38:15.522Z,10.52
2023-02-05T00:40:43.320Z,11.68
2023-02-05T00:43:10.393Z,10.60
2023-02-05T00:45:37.055Z,11.65
2023-02-05T00:48:07.232Z,9.73
2023-02-05T00:50:35.966Z,11.45
2023-02-05T00:53:03.281Z,9.98
2023-02-05T00:55:30.144Z,11.45
2023-02-05T00:57:56.873Z,11.57
2023-02-05T01:00:24.262Z,9.13
2023-02-05T01:02:51.007Z,11.23
2023-02-05T01:05:17.805Z,11.50
2023-02-05T01:07:44.498Z,12.20
2023-02-05T01:10:11.180Z,13.55
2023-02-05T01:12:37.905Z,10.88
2023-02-05T01:15:07.099Z,11.15
2023-02-05T01:17:33.854Z,11.82
2023-02-05T01:20:00.572Z,9.77
2023-02-05T01:22:27.389Z,10.93
2023-02-05T01:24:54.149Z,11.30
2023-02-05T01:27:20.904Z,11.88
2023-02-05T01:29:47.646Z,9.40
2023-02-05T01:32:14.300Z,11.02
2023-02-05T01:34:40.956Z,9.00
2023-02-05T01:37:07.649Z,10.90
2023-02-05T01:39:36.309Z,11.10
2023-02-05T01:42:05.075Z,15.13
2023-02-05T01:44:31.842Z,14.18
2023-02-05T01:46:58.576Z,12.82
2023-02-05T01:49:30.189Z,11.73
2023-02-05T01:52:02.023Z,11.20
2023-02-05T01:54:30.337Z,12.65
2023-02-05T01:57:03.402Z,13.15
2023-02-05T01:59:33.697Z,16.00
2023-02-05T02:02:02.133Z,12.40
2023-02-05T02:04:43.077Z,10.73
2023-02-05T02:07:13.546Z,12.23
2023-02-05T02:09:42.074Z,16.02
2023-02-05T02:12:10.814Z,13.35
2023-02-05T02:14:40.448Z,12.05
2023-02-05T02:17:09.058Z,10.68
2023-02-05T02:19:59.775Z,11.43
2023-02-05T02:23:08.079Z,11.27
2023-02-05T02:26:02.149Z,11.18
2023-02-05T02:28:55.532Z,14.13
2023-02-05T02:31:25.003Z,10.52
2023-02-05T02:34:01.713Z,11.55
2023-02-05T02:36:42.332Z,15.40
2023-02-05T02:39:37.941Z,11.40
2023-02-05T02:42:18.918Z,11.18
2023-02-05T02:44:50.933Z,14.48
2023-02-05T02:47:23.943Z,12.50
2023-02-05T02:50:02.343Z,12.68
2023-02-05T02:52:34.633Z,11.50
2023-02-05T02:55:07.839Z,11.70
2023-02-05T02:57:37.211Z,11.75
2023-02-05T03:00:10.313Z,9.60
2023-02-05T03:02:39.141Z,10.65
2023-02-05T03:05:11.393Z,11.20
2023-02-05T03:07:44.891Z,11.10
2023-02-05T03:10:32.184Z,8.57
2023-02-05T03:12:58.930Z,9.93
2023-02-05T03:15:25.837Z,10.88
2023-02-05T03:17:55.497Z,10.05
2023-02-05T03:20:32.954Z,12.77
2023-02-05T03:22:59.650Z,14.23
2023-02-05T03:25:30.196Z,11.45
2023-02-05T03:27:57.682Z,16.35
2023-02-05T03:30:30.748Z,11.15
2023-02-05T03:33:16.377Z,9.13
2023-02-05T03:36:09.270Z,12.30
2023-02-05T03:38:48.295Z,11.13
2023-02-05T03:41:50.563Z,14.23
2023-02-05T03:44:26.435Z,12.32
2023-02-05T03:47:00.398Z,12.80
2023-02-05T03:49:52.530Z,13.02
2023-02-05T03:52:27.220Z,11.80
2023-02-05T03:55:26.233Z,10.45
2023-02-05T03:57:59.936Z,10.50
2023-02-05T04:00:27.551Z,13.32
2023-02-05T04:02:54.994Z,12.82
2023-02-05T04:05:22.988Z,13.25
2023-02-05T04:07:51.011Z,11.93
2023-02-05T04:10:19.071Z,13.77
2023-02-05T04:12:45.808Z,12.63
2023-02-05T04:15:12.806Z,13.85
2023-02-05T04:17:39.851Z,14.38
2023-02-05T04:20:07.475Z,14.35
2023-02-05T04:22:34.223Z,12.23
2023-02-05T04:25:00.970Z,11.35
2023-02-05T04:27:27.640Z,11.40
2023-02-05T04:29:54.341Z,13.02
2023-02-05T04:32:21.060Z,11.45
2023-02-05T04:34:47.772Z,12.00
2023-02-05T04:37:14.424Z,13.70
2023-02-05T04:39:41.090Z,13.82
2023-02-05T04:42:07.917Z,13.60
2023-02-05T04:44:34.597Z,11.43
2023-02-05T04:47:01.556Z,12.75
2023-02-05T04:49:28.220Z,11.82
2023-02-05T04:51:54.883Z,11.93
2023-02-05T04:54:21.552Z,11.82
2023-02-05T04:56:48.265Z,12.98
2023-02-05T04:59:15.034Z,11.35
2023-02-05T05:01:41.698Z,11.85
2023-02-05T05:04:09.081Z,12.38
2023-02-05T05:06:35.733Z,14.82
2023-02-05T05:09:02.698Z,13.23
2023-02-05T05:11:29.359Z,12.82
2023-02-05T05:13:56.040Z,13.55
2023-02-05T05:16:22.906Z,11.98
2023-02-05T05:18:52.338Z,13.57
2023-02-05T05:21:19.033Z,12.48
2023-02-05T05:23:45.724Z,11.15
2023-02-05T05:26:12.852Z,11.48
2023-02-05T05:28:40.105Z,12.23
2023-02-05T05:31:22.147Z,12.73
2023-02-05T05:33:49.565Z,12.27
2023-02-05T05:36:17.221Z,14.38
2023-02-05T05:38:45.236Z,12.80
2023-02-05T05:41:40.210Z,13.23
2023-02-05T05:46:33.723Z,10.68
2023-02-05T05:49:02.254Z,12.10
2023-02-05T05:51:30.647Z,13.65
2023-02-05T05:53:57.675Z,12.48
2023-02-05T05:56:24.714Z,11.18
2023-02-05T05:58:51.408Z,11.55
2023-02-05T06:01:20.550Z,12.57
2023-02-05T06:03:47.542Z,13.30
2023-02-05T06:06:14.239Z,13.55
2023-02-05T06:08:41.018Z,11.20
2023-02-05T06:11:07.764Z,11.63
2023-02-05T06:13:34.940Z,13.43
2023-02-05T06:16:01.815Z,11.90
2023-02-05T06:18:28.687Z,11.32
2023-02-05T06:20:55.384Z,13.07
2023-02-05T06:23:22.141Z,12.05
2023-02-05T06:25:48.814Z,14.52
2023-02-05T06:28:15.516Z,12.85
2023-02-05T06:30:42.255Z,15.75
2023-02-05T06:33:08.991Z,21.70
2023-02-05T06:35:35.982Z,19.20
2023-02-05T06:38:03.072Z,24.02
2023-02-05T06:40:29.979Z,23.75
2023-02-05T06:42:56.674Z,17.85
2023-02-05T06:45:23.467Z,19.30
2023-02-05T06:47:52.802Z,14.13
2023-02-05T06:50:20.138Z,14.73
2023-02-05T06:52:46.828Z,18.27
2023-02-05T06:55:13.524Z,17.67
2023-02-05T06:57:40.213Z,17.48
2023-02-05T07:00:07.750Z,18.75
2023-02-05T07:02:34.718Z,18.00
2023-02-05T07:05:01.424Z,14.40
2023-02-05T07:07:28.374Z,14.50
2023-02-05T07:09:55.077Z,16.48
2023-02-05T07:12:22.046Z,18.45
2023-02-05T07:14:48.822Z,16.60
2023-02-05T07:17:15.586Z,16.58
2023-02-05T07:19:42.544Z,18.55
2023-02-05T07:22:10.817Z,26.30
2023-02-05T07:24:37.480Z,17.70
2023-02-05T07:27:04.162Z,18.55
2023-02-05T07:29:30.909Z,20.20
2023-02-05T07:31:57.673Z,17.90
2023-02-05T07:34:24.469Z,18.85
2023-02-05T07:36:52.501Z,20.80
2023-02-05T07:39:19.313Z,20.85
2023-02-05T07:41:46.047Z,17.77
2023-02-05T07:44:12.994Z,17.60
2023-02-05T07:46:40.857Z,21.55
2023-02-05T07:49:07.671Z,24.10
2023-02-05T07:51:35.309Z,21.10
2023-02-05T07:54:06.922Z,21.48
2023-02-05T07:56:33.699Z,18.27
2023-02-05T07:59:00.483Z,17.88
2023-02-05T08:01:27.232Z,16.33
2023-02-05T08:03:53.992Z,15.45
2023-02-05T08:06:20.709Z,18.52
2023-02-05T08:08:48.872Z,17.30
2023-02-05T08:11:16.971Z,16.35
2023-02-05T08:13:44.459Z,16.85
2023-02-05T08:16:11.774Z,15.85
2023-02-05T08:18:38.843Z,21.85
2023-02-05T08:21:05.671Z,19.10
2023-02-05T08:23:32.511Z,21.23
2023-02-05T08:25:59.811Z,17.85
2023-02-05T08:28:28.321Z,19.92
2023-02-05T08:30:56.561Z,23.35
2023-02-05T08:33:24.148Z,22.67
2023-02-05T08:35:51.013Z,31.50
2023-02-05T08:38:17.995Z,27.17
2023-02-05T08:40:44.654Z,25.48
2023-02-05T08:43:11.437Z,19.70
2023-02-05T08:45:38.870Z,17.67
2023-02-05T08:48:05.610Z,19.35
2023-02-05T08:50:32.504Z,15.35
2023-02-05T08:52:59.165Z,19.55
2023-02-05T08:55:25.918Z,16.35
2023-02-05T08:57:52.990Z,17.38
2023-02-05T09:00:21.133Z,19.98
2023-02-05T09:02:47.906Z,17.80
2023-02-05T09:05:14.597Z,15.10
2023-02-05T09:07:41.979Z,13.40
2023-02-05T09:10:10.834Z,16.63
2023-02-05T09:12:37.634Z,15.45
2023-02-05T09:15:05.916Z,17.27
2023-02-05T09:17:32.639Z,21.15
2023-02-05T09:19:59.366Z,15.68
2023-02-05T09:22:26.128Z,18.92
2023-02-05T09:24:52.805Z,13.38
2023-02-05T09:27:19.509Z,16.08
2023-02-05T09:29:46.230Z,12.90
2023-02-05T09:32:12.974Z,15.32
2023-02-05T09:34:39.782Z,16.15
2023-02-05T09:37:06.489Z,14.77
2023-02-05T09:42:38.567Z,12.98
2023-02-05T09:45:34.193Z,16.55
2023-02-05T09:48:19.514Z,15.50
2023-02-05T09:50:46.244Z,13.73
2023-02-05T09:53:19.268Z,17.33
2023-02-05T09:55:48.174Z,16.33
2023-02-05T09:58:24.601Z,15.30
2023-02-05T10:01:04.005Z,14.73
2023-02-05T10:03:48.044Z,17.17
2023-02-05T10:06:27.042Z,20.33
2023-02-05T10:09:12.596Z,15.82
2023-02-05T10:12:06.804Z,14.73
2023-02-05T10:14:52.146Z,17.53
2023-02-05T10:17:55.958Z,18.05
2023-02-05T10:20:53.920Z,17.25
2023-02-05T10:23:51.126Z,18.17
2023-02-05T10:26:18.224Z,17.30
2023-02-05T10:29:22.731Z,14.68
2023-02-05T10:31:54.866Z,16.93
2023-02-05T10:34:43.519Z,17.90
2023-02-05T10:37:16.587Z,18.08
2023-02-05T10:39:43.920Z,21.02
2023-02-05T10:42:28.045Z,19.70
2023-02-05T10:45:06.455Z,13.02
2023-02-05T10:47:36.155Z,18.90
2023-02-05T10:50:27.628Z,16.83
2023-02-05T10:52:54.497Z,18.30
2023-02-05T10:55:21.296Z,17.33
2023-02-05T10:57:48.455Z,18.75
2023-02-05T11:00:19.592Z,19.10
2023-02-05T11:02:52.940Z,18.65
2023-02-05T11:05:35.975Z,20.80
2023-02-05T11:08:03.628Z,19.83
2023-02-05T11:10:35.958Z,23.55
2023-02-05T11:13:16.813Z,27.33
2023-02-05T11:15:57.907Z,22.42
2023-02-05T11:18:32.794Z,17.00
2023-02-05T11:21:01.904Z,21.85
2023-02-05T11:23:39.730Z,21.70
2023-02-05T11:26:20.436Z,19.40
2023-02-05T11:28:47.801Z,23.23
2023-02-05T11:31:23.759Z,21.13
2023-02-05T11:33:50.994Z,21.27
2023-02-05T11:36:25.411Z,18.13
2023-02-05T11:41:52.102Z,22.52
2023-02-05T11:44:27.604Z,19.83
2023-02-05T11:46:59.367Z,20.35
2023-02-05T11:49:34.715Z,22.63
2023-02-05T11:52:15.190Z,23.50
2023-02-05T11:54:47.146Z,19.33
2023-02-05T11:57:14.646Z,18.83
2023-02-05T11:59:41.471Z,20.13
2023-02-05T12:02:29.353Z,21.23
2023-02-05T12:05:13.105Z,19.08
2023-02-05T12:08:02.124Z,19.17
2023-02-05T12:10:38.176Z,24.63
2023-02-05T12:13:43.604Z,19.38
2023-02-05T12:16:30.694Z,25.13
2023-02-05T12:19:24.189Z,17.75
2023-02-05T12:21:59.960Z,21.10
2023-02-05T12:25:04.463Z,19.85
2023-02-05T12:27:58.779Z,18.33
2023-02-05T12:30:55.065Z,18.35
2023-02-05T12:33:33.984Z,18.25
2023-02-05T12:36:40.961Z,19.48
2023-02-05T12:39:22.623Z,18.75
2023-02-05T12:42:11.765Z,18.98
2023-02-05T12:45:23.152Z,20.55
2023-02-05T12:48:11.053Z,22.67
2023-02-05T12:50:54.083Z,18.27
2023-02-05T12:53:38.992Z,19.70
2023-02-05T12:56:28.264Z,23.45
2023-02-05T12:59:00.943Z,20.38
2023-02-05T13:01:41.178Z,25.83
2023-02-05T13:04:21.150Z,30.38
2023-02-05T13:06:55.432Z,24.52
2023-02-05T13:09:29.102Z,19.40
2023-02-05T13:12:05.165Z,17.33
2023-02-05T13:14:42.510Z,19.30
2023-02-05T13:17:21.310Z,20.40
2023-02-05T13:19:59.459Z,19.02
2023-02-05T13:22:54.825Z,19.85
2023-02-05T13:26:04.371Z,22.95
2023-02-05T13:28:42.025Z,25.50
2023-02-05T13:31:24.297Z,24.90
2023-02-05T13:33:53.428Z,22.95
2023-02-05T13:36:27.615Z,19.08
2023-02-05T13:39:34.253Z,18.85
2023-02-05T13:42:12.889Z,20.48
2023-02-05T13:45:04.698Z,20.55
2023-02-05T13:48:00.748Z,19.52
2023-02-05T13:50:33.536Z,20.58
2023-02-05T13:53:25.638Z,28.48
2023-02-05T13:56:21.014Z,21.85
2023-02-05T13:58:55.644Z,20.48
2023-02-05T14:01:31.086Z,25.85
2023-02-05T14:04:02.705Z,27.67
2023-02-05T14:06:38.702Z,25.80
2023-02-05T14:09:24.339Z,19.27
2023-02-05T14:11:58.084Z,17.77
2023-02-05T14:14:31.042Z,14.63
2023-02-05T14:17:00.536Z,18.73
2023-02-05T14:19:45.556Z,15.77
2023-02-05T14:22:33.446Z,15.98
2023-02-05T14:25:00.251Z,18.52
2023-02-05T14:27:29.788Z,20.50
2023-02-05T14:29:57.874Z,22.48
2023-02-05T14:32:30.678Z,18.27
2023-02-05T14:35:04.460Z,18.27
2023-02-05T14:37:49.590Z,11.93
2023-02-05T14:40:36.963Z,17.15
2023-02-05T14:43:24.782Z,20.33
2023-02-05T14:45:53.044Z,21.30
2023-02-05T14:48:30.523Z,20.42
2023-02-05T14:51:04.969Z,19.52
2023-02-05T14:53:33.364Z,19.42
2023-02-05T14:56:01.190Z,16.10
2023-02-05T14:58:32.493Z,20.85
2023-02-05T15:01:33.555Z,15.00
2023-02-05T15:04:03.107Z,15.45
2023-02-05T15:06:38.221Z,18.77
2023-02-05T15:09:17.200Z,25.55
2023-02-05T15:12:07.685Z,29.92
2023-02-05T15:14:41.729Z,27.55
2023-02-05T15:17:10.785Z,26.23
2023-02-05T15:19:49.994Z,27.67
2023-02-05T15:22:24.513Z,18.83
2023-02-05T15:24:53.753Z,22.27
2023-02-05T15:27:29.451Z,20.80
2023-02-05T15:29:57.505Z,26.27
2023-02-05T15:32:32.525Z,29.38
2023-02-05T15:35:05.477Z,23.95
2023-02-05T15:37:43.509Z,24.67
2023-02-05T15:40:21.715Z,19.98
2023-02-05T15:42:54.170Z,21.05
2023-02-05T15:45:26.702Z,15.93
2023-02-05T15:48:06.207Z,17.98
2023-02-05T15:50:35.062Z,15.80
2023-02-05T15:53:03.316Z,19.90
2023-02-05T15:55:30.637Z,19.83
2023-02-05T15:58:04.312Z,100.53
2023-02-05T16:00:33.889Z,78.05
2023-02-05T16:03:02.722Z,19.05
2023-02-05T16:05:31.997Z,23.65
2023-02-05T16:08:01.841Z,16.95
2023-02-05T16:10:32.657Z,17.20
2023-02-05T16:13:05.293Z,17.48
2023-02-05T16:16:01.517Z,17.85
2023-02-05T16:18:34.266Z,15.77
2023-02-05T16:21:29.148Z,14.52
2023-02-05T16:24:02.958Z,16.33
2023-02-05T16:26:46.395Z,14.98
2023-02-05T16:29:26.800Z,25.73
2023-02-05T16:32:09.933Z,41.15
2023-02-05T16:34:40.371Z,38.35
2023-02-05T16:37:10.231Z,18.75
2023-02-05T16:39:45.116Z,23.67
2023-02-05T16:42:26.827Z,19.88
2023-02-05T16:45:08.578Z,22.95
2023-02-05T16:47:36.505Z,19.35
2023-02-05T16:50:42.957Z,22.70
2023-02-05T16:53:17.773Z,21.40
2023-02-05T16:55:44.965Z,20.10
2023-02-05T16:58:19.407Z,23.80
2023-02-05T17:03:23.896Z,24.70
2023-02-05T17:06:00.560Z,56.45
2023-02-05T17:08:33.639Z,19.08
2023-02-05T17:11:03.614Z,24.15
2023-02-05T17:13:36.463Z,21.05
2023-02-05T17:16:22.368Z,26.40
2023-02-05T17:18:59.576Z,25.90
2023-02-05T17:21:32.328Z,28.52
2023-02-05T17:24:02.747Z,21.48
2023-02-05T17:26:32.845Z,17.67
2023-02-05T17:29:05.406Z,19.70
2023-02-05T17:31:37.591Z,20.15
2023-02-05T17:34:04.758Z,20.15
2023-02-05T17:36:31.563Z,19.10
2023-02-05T17:38:58.259Z,18.52
2023-02-05T17:41:50.687Z,16.60
2023-02-05T17:44:17.723Z,18.05
2023-02-05T17:46:44.859Z,19.38
2023-02-05T17:49:11.882Z,19.90
2023-02-05T17:51:41.701Z,19.45
2023-02-05T17:54:17.011Z,17.13
2023-02-05T17:56:45.324Z,20.75
2023-02-05T17:59:17.497Z,19.95
2023-02-05T18:01:45.219Z,19.10
2023-02-05T18:04:12.966Z,25.65
2023-02-05T18:06:40.955Z,32.58
2023-02-05T18:09:07.900Z,25.92
2023-02-05T18:11:35.238Z,25.80
2023-02-05T18:14:02.100Z,23.52
2023-02-05T18:16:29.070Z,30.58
2023-02-05T18:18:55.800Z,26.65
2023-02-05T18:21:24.457Z,25.25
2023-02-05T18:23:54.340Z,22.42
2023-02-05T18:26:21.573Z,23.05
2023-02-05T18:28:48.293Z,24.15
2023-02-05T18:31:15.071Z,28.20
2023-02-05T18:33:42.283Z,25.83
2023-02-05T18:36:12.274Z,24.77
2023-02-05T18:38:40.941Z,24.50
2023-02-05T18:41:21.699Z,21.00
2023-02-05T18:43:48.534Z,22.50
2023-02-05T18:46:17.338Z,20.95
2023-02-05T18:48:49.178Z,19.90
2023-02-05T18:51:18.281Z,21.30
2023-02-05T18:53:45.627Z,20.88
2023-02-05T18:56:15.301Z,20.20
2023-02-05T18:58:43.368Z,20.25
2023-02-05T19:01:13.021Z,19.85
2023-02-05T19:03:43.378Z,19.70
2023-02-05T19:06:19.578Z,22.20
2023-02-05T19:08:46.237Z,21.20
2023-02-05T19:11:20.297Z,20.92
2023-02-05T19:13:48.084Z,22.20
2023-02-05T19:16:16.609Z,23.38
2023-02-05T19:18:45.152Z,27.40
2023-02-05T19:21:17.394Z,31.75
2023-02-05T19:23:46.050Z,36.63
2023-02-05T19:26:14.974Z,34.60
2023-02-05T19:28:42.962Z,33.65
2023-02-05T19:31:13.077Z,32.45
2023-02-05T19:33:41.002Z,25.80
2023-02-05T19:36:09.190Z,27.10
2023-02-05T19:38:37.697Z,28.13
2023-02-05T19:41:15.633Z,28.80
2023-02-05T19:43:50.091Z,23.75
2023-02-05T19:48:48.170Z,16.70
2023-02-05T19:51:15.765Z,16.65
2023-02-05T19:53:45.227Z,17.13
2023-02-05T19:56:14.731Z,20.40
2023-02-05T19:58:43.632Z,20.35
2023-02-05T20:01:30.102Z,18.77
2023-02-05T20:03:59.472Z,17.67
2023-02-05T20:06:28.528Z,16.88
2023-02-05T20:08:55.901Z,17.05
2023-02-05T20:11:23.075Z,14.73
2023-02-05T20:13:50.241Z,14.80
2023-02-05T20:16:22.375Z,15.32
2023-02-05T20:18:55.039Z,14.07
2023-02-05T20:21:22.217Z,13.70
2023-02-05T20:23:49.696Z,12.18
2023-02-05T20:26:22.107Z,11.02
2023-02-05T20:29:13.604Z,12.52
2023-02-05T20:31:43.600Z,11.02
2023-02-05T20:34:21.288Z,13.23
2023-02-05T20:36:56.710Z,11.55
2023-02-05T20:39:28.651Z,11.38
2023-02-05T20:41:57.821Z,10.25
2023-02-05T20:44:29.136Z,11.10
2023-02-05T20:46:56.284Z,8.80
2023-02-05T20:49:23.712Z,9.75
2023-02-05T20:51:50.426Z,9.98
2023-02-05T20:54:17.420Z,10.93
2023-02-05T20:56:44.354Z,13.18
2023-02-05T20:59:12.287Z,14.88
2023-02-05T21:01:40.212Z,12.40
2023-02-05T21:04:08.567Z,15.15
2023-02-05T21:06:37.958Z,23.10
2023-02-05T21:09:05.476Z,21.02
2023-02-05T21:11:32.725Z,20.75
2023-02-05T21:13:59.727Z,20.08
2023-02-05T21:16:27.891Z,24.05
2023-02-05T21:18:55.270Z,22.70
2023-02-05T21:21:27.804Z,22.88
2023-02-05T21:24:09.076Z,20.92
2023-02-05T21:26:40.777Z,20.55
2023-02-05T21:29:10.657Z,19.33
2023-02-05T21:31:40.531Z,19.30
2023-02-05T21:34:10.512Z,19.13
2023-02-05T21:36:37.686Z,21.00
2023-02-05T21:39:04.800Z,22.45
2023-02-05T21:41:31.905Z,23.02
2023-02-05T21:44:00.425Z,23.15
2023-02-05T21:46:29.343Z,19.92
2023-02-05T21:48:57.658Z,19.63
2023-02-05T21:51:27.161Z,20.15
2023-02-05T21:53:58.638Z,20.33
2023-02-05T21:56:31.370Z,19.20
2023-02-05T21:58:58.430Z,19.95
2023-02-05T22:01:27.611Z,18.77
2023-02-05T22:04:00.456Z,19.30
2023-02-05T22:06:30.001Z,21.60
2023-02-05T22:08:58.300Z,20.42
2023-02-05T22:11:26.174Z,20.08
2023-02-05T22:13:54.111Z,20.63
2023-02-05T22:16:29.848Z,20.33
2023-02-05T22:18:58.097Z,22.52
2023-02-05T22:21:34.017Z,21.90
2023-02-05T22:24:02.118Z,20.85
2023-02-05T22:26:31.554Z,21.48
2023-02-05T22:29:00.135Z,19.30
2023-02-05T22:31:28.575Z,19.75
2023-02-05T22:33:56.035Z,19.92
2023-02-05T22:36:25.807Z,20.80
2023-02-05T22:38:53.343Z,17.98
2023-02-05T22:41:26.464Z,17.58
2023-02-05T22:43:58.010Z,17.20
2023-02-05T22:46:27.482Z,17.83
2023-02-05T22:48:55.242Z,20.55
2023-02-05T22:51:31.998Z,21.55
2023-02-05T22:53:59.080Z,19.65
2023-02-05T22:56:26.583Z,18.10
2023-02-05T22:58:55.945Z,14.93
2023-02-05T23:01:31.560Z,16.33
2023-02-05T23:03:59.395Z,15.43
2023-02-05T23:06:32.687Z,13.65
2023-02-05T23:09:11.694Z,12.05
2023-02-05T23:11:38.788Z,12.20
2023-02-05T23:14:06.886Z,11.18
2023-02-05T23:16:40.256Z,12.65
2023-02-05T23:19:14.008Z,12.88
2023-02-05T23:21:41.215Z,11.80
2023-02-05T23:24:09.411Z,12.52
2023-02-05T23:26:41.845Z,11.70
2023-02-05T23:29:11.325Z,11.60
2023-02-05T23:31:38.277Z,10.23
2023-02-05T23:34:05.169Z,10.13
2023-02-05T23:36:32.111Z,11.02
2023-02-05T23:38:59.072Z,12.38
2023-02-05T23:41:37.699Z,11.55
2023-02-05T23:44:14.788Z,11.82
2023-02-05T23:46:43.026Z,12.35
2023-02-05T23:49:10.317Z,12.30
2023-02-05T23:51:37.097Z,12.50
2023-02-05T23:54:04.949Z,13.00
2023-02-05T23:56:31.913Z,12.38
2023-02-05T23:58:59.310Z,12.25
